createdAt,value
2023-05-24T00:01:50.978Z,3.20
2023-05-24T00:04:18.927Z,4.20
2023-05-24T00:06:51.981Z,3.47
2023-05-24T00:09:22.744Z,4.03
2023-05-24T00:11:52.935Z,4.07
2023-05-24T00:14:23.074Z,3.73
2023-05-24T00:16:51.350Z,3.80
2023-05-24T00:19:22.415Z,4.00
2023-05-24T00:21:55.610Z,4.33
2023-05-24T00:24:23.443Z,3.70
2023-05-24T00:26:54.032Z,4.60
2023-05-24T00:29:22.132Z,3.93
2023-05-24T00:31:51.171Z,3.93
2023-05-24T00:34:24.388Z,4.30
2023-05-24T00:36:52.479Z,3.30
2023-05-24T00:39:21.627Z,3.90
2023-05-24T00:41:52.388Z,3.20
2023-05-24T00:44:20.298Z,3.80
2023-05-24T00:46:54.429Z,3.63
2023-05-24T00:49:23.070Z,4.27
2023-05-24T00:51:52.540Z,4.30
2023-05-24T00:54:21.910Z,4.63
2023-05-24T00:56:53.860Z,5.00
2023-05-24T00:59:24.104Z,3.80
2023-05-24T01:01:55.534Z,4.83
2023-05-24T01:04:24.652Z,4.77
2023-05-24T01:06:59.300Z,4.40
2023-05-24T01:09:35.082Z,4.40
2023-05-24T01:12:13.218Z,4.00
2023-05-24T01:14:49.681Z,3.93
2023-05-24T01:17:26.749Z,4.10
2023-05-24T01:20:00.087Z,4.93
2023-05-24T01:23:13.018Z,4.40
2023-05-24T01:25:49.622Z,4.60
2023-05-24T01:28:19.649Z,4.37
2023-05-24T01:30:47.959Z,3.60
2023-05-24T01:33:19.103Z,4.27
2023-05-24T01:35:54.009Z,4.57
2023-05-24T01:38:29.014Z,4.43
2023-05-24T01:41:04.213Z,4.10
2023-05-24T01:43:37.948Z,4.87
2023-05-24T01:46:15.380Z,4.47
2023-05-24T01:48:53.997Z,4.80
2023-05-24T01:51:26.406Z,4.50
2023-05-24T01:53:54.684Z,4.53
2023-05-24T01:56:26.064Z,4.20
2023-05-24T01:58:56.086Z,4.30
2023-05-24T02:01:24.493Z,4.63
2023-05-24T02:03:54.743Z,4.50
2023-05-24T02:06:25.629Z,5.17
2023-05-24T02:08:57.875Z,4.30
2023-05-24T02:11:27.402Z,4.90
2023-05-24T02:14:04.439Z,5.30
2023-05-24T02:16:33.694Z,4.23
2023-05-24T02:19:03.595Z,4.50
2023-05-24T02:21:34.661Z,4.10
2023-05-24T02:24:03.591Z,4.17
2023-05-24T02:26:32.852Z,3.60
2023-05-24T02:29:06.169Z,4.20
2023-05-24T02:31:37.924Z,5.57
2023-05-24T02:34:06.235Z,4.57
2023-05-24T02:36:36.330Z,4.50
2023-05-24T02:39:07.773Z,4.07
2023-05-24T02:41:35.762Z,4.33
2023-05-24T02:44:05.538Z,4.50
2023-05-24T02:46:33.716Z,4.40
2023-05-24T02:49:22.378Z,4.73
2023-05-24T02:51:50.331Z,4.00
2023-05-24T02:54:18.805Z,4.30
2023-05-24T02:56:50.564Z,4.30
2023-05-24T02:59:20.010Z,4.33
2023-05-24T03:01:47.948Z,5.40
2023-05-24T03:04:15.908Z,4.80
2023-05-24T03:06:47.222Z,4.93
2023-05-24T03:09:16.776Z,4.73
2023-05-24T03:11:44.846Z,4.13
2023-05-24T03:14:12.921Z,5.37
2023-05-24T03:16:43.435Z,4.73
2023-05-24T03:19:11.486Z,3.60
2023-05-24T03:21:48.958Z,4.50
2023-05-24T03:24:17.099Z,4.43
2023-05-24T03:26:45.510Z,4.40
2023-05-24T03:29:22.619Z,4.60
2023-05-24T03:31:52.319Z,4.10
2023-05-24T03:34:23.733Z,4.17
2023-05-24T03:36:51.641Z,4.50
2023-05-24T03:39:22.333Z,4.63
2023-05-24T03:41:54.513Z,4.13
2023-05-24T03:44:22.275Z,4.47
2023-05-24T03:46:51.606Z,4.80
2023-05-24T03:49:19.780Z,4.30
2023-05-24T03:51:47.768Z,4.30
2023-05-24T03:54:17.863Z,4.20
2023-05-24T03:56:47.447Z,3.73
2023-05-24T03:59:15.301Z,3.63
2023-05-24T04:01:43.836Z,4.60
2023-05-24T04:04:16.025Z,4.50
2023-05-24T04:06:46.860Z,4.13
2023-05-24T04:09:14.855Z,4.57
2023-05-24T04:11:46.448Z,4.13
2023-05-24T04:14:22.404Z,5.00
2023-05-24T04:16:50.405Z,4.40
2023-05-24T04:19:28.686Z,4.40
2023-05-24T04:22:09.857Z,4.63
2023-05-24T04:24:41.688Z,4.50
2023-05-24T04:27:10.579Z,4.37
2023-05-24T04:29:55.168Z,4.50
2023-05-24T04:32:26.251Z,4.73
2023-05-24T04:34:55.569Z,4.20
2023-05-24T04:37:24.785Z,4.37
2023-05-24T04:39:52.863Z,4.90
2023-05-24T04:42:22.326Z,4.97
2023-05-24T04:44:50.390Z,4.57
2023-05-24T04:47:21.073Z,4.87
2023-05-24T04:49:49.398Z,4.40
2023-05-24T04:52:21.326Z,4.30
2023-05-24T04:54:53.664Z,4.37
2023-05-24T04:57:24.286Z,4.90
2023-05-24T04:59:56.241Z,5.30
2023-05-24T05:02:26.483Z,4.80
2023-05-24T05:04:56.512Z,4.97
2023-05-24T05:07:28.556Z,5.00
2023-05-24T05:09:59.714Z,4.93
2023-05-24T05:12:30.357Z,4.60
2023-05-24T05:14:58.399Z,4.90
2023-05-24T05:17:26.726Z,4.57
2023-05-24T05:19:55.428Z,4.80
2023-05-24T05:22:25.109Z,4.77
2023-05-24T05:24:56.029Z,5.50
2023-05-24T05:27:24.135Z,4.80
2023-05-24T05:30:06.592Z,4.30
2023-05-24T05:32:39.071Z,4.93
2023-05-24T05:35:08.218Z,3.43
2023-05-24T05:37:37.597Z,4.43
2023-05-24T05:40:10.420Z,4.70
2023-05-24T05:42:43.913Z,5.23
2023-05-24T05:45:12.806Z,4.43
2023-05-24T05:47:46.741Z,4.50
2023-05-24T05:50:17.681Z,4.57
2023-05-24T05:52:46.898Z,4.87
2023-05-24T05:55:20.066Z,4.43
2023-05-24T05:57:51.102Z,4.30
2023-05-24T06:00:20.298Z,4.83
2023-05-24T06:02:48.337Z,5.47
2023-05-24T06:05:16.380Z,6.43
2023-05-24T06:07:44.238Z,3.53
2023-05-24T06:10:17.408Z,4.70
2023-05-24T06:13:06.282Z,4.30
2023-05-24T06:15:34.538Z,4.20
2023-05-24T06:18:05.243Z,4.47
2023-05-24T06:20:37.070Z,4.90
2023-05-24T06:23:05.190Z,4.53
2023-05-24T06:25:34.588Z,4.10
2023-05-24T06:28:02.619Z,4.23
2023-05-24T06:30:36.056Z,4.80
2023-05-24T06:33:04.239Z,3.90
2023-05-24T06:35:32.142Z,4.50
2023-05-24T06:38:05.955Z,4.97
2023-05-24T06:40:40.438Z,4.60
2023-05-24T06:43:08.450Z,4.63
2023-05-24T06:45:36.662Z,4.30
2023-05-24T06:48:08.736Z,4.83
2023-05-24T06:50:39.147Z,3.80
2023-05-24T06:53:09.228Z,4.10
2023-05-24T06:55:38.698Z,4.50
2023-05-24T06:58:07.206Z,4.13
2023-05-24T07:00:35.360Z,4.50
2023-05-24T07:03:03.323Z,4.50
2023-05-24T07:05:36.537Z,4.67
2023-05-24T07:08:12.959Z,3.83
2023-05-24T07:10:49.287Z,3.83
2023-05-24T07:13:17.095Z,4.27
2023-05-24T07:15:44.907Z,4.20
2023-05-24T07:18:16.515Z,4.63
2023-05-24T07:20:46.927Z,5.60
2023-05-24T07:23:17.625Z,4.57
2023-05-24T07:25:48.952Z,4.80
2023-05-24T07:28:20.192Z,3.80
2023-05-24T07:30:48.537Z,5.40
2023-05-24T07:33:20.962Z,5.37
2023-05-24T07:35:54.455Z,4.53
2023-05-24T07:38:22.493Z,5.40
2023-05-24T07:40:57.575Z,5.07
2023-05-24T07:43:31.123Z,4.50
2023-05-24T07:45:59.082Z,4.40
2023-05-24T07:48:28.299Z,3.90
2023-05-24T07:50:56.832Z,4.43
2023-05-24T07:53:27.511Z,4.90
2023-05-24T07:56:00.136Z,4.60
2023-05-24T07:58:27.966Z,5.60
2023-05-24T08:01:00.429Z,4.63
2023-05-24T08:03:28.824Z,5.93
2023-05-24T08:05:57.172Z,5.03
2023-05-24T08:08:25.186Z,4.60
2023-05-24T08:10:55.907Z,4.03
2023-05-24T08:13:28.569Z,4.80
2023-05-24T08:15:58.438Z,4.80
2023-05-24T08:18:35.451Z,4.00
2023-05-24T08:21:07.000Z,5.07
2023-05-24T08:23:35.071Z,5.07
2023-05-24T08:26:04.444Z,4.00
2023-05-24T08:28:34.502Z,4.50
2023-05-24T08:31:06.241Z,4.60
2023-05-24T08:33:36.968Z,4.60
2023-05-24T08:36:04.947Z,4.57
2023-05-24T08:38:34.522Z,5.30
2023-05-24T08:41:03.853Z,5.33
2023-05-24T08:43:33.676Z,4.47
2023-05-24T08:46:05.029Z,4.10
2023-05-24T08:48:36.139Z,5.17
2023-05-24T08:51:14.674Z,5.70
2023-05-24T08:53:49.136Z,5.57
2023-05-24T08:56:21.721Z,5.17
2023-05-24T08:58:54.321Z,5.33
2023-05-24T09:01:28.976Z,6.30
2023-05-24T09:03:58.542Z,5.80
2023-05-24T09:06:26.964Z,5.70
2023-05-24T09:08:57.615Z,5.73
2023-05-24T09:11:31.300Z,4.43
2023-05-24T09:14:01.621Z,4.93
2023-05-24T09:16:29.692Z,4.17
2023-05-24T09:18:59.652Z,5.60
2023-05-24T09:21:39.817Z,5.37
2023-05-24T09:24:09.684Z,5.33
2023-05-24T09:26:42.350Z,4.77
2023-05-24T09:29:12.596Z,5.03
2023-05-24T09:31:41.844Z,5.57
2023-05-24T09:34:14.040Z,5.47
2023-05-24T09:36:43.125Z,5.70
2023-05-24T09:39:15.973Z,5.03
2023-05-24T09:41:45.695Z,5.80
2023-05-24T09:44:18.869Z,4.57
2023-05-24T09:46:47.665Z,5.93
2023-05-24T09:49:15.879Z,4.63
2023-05-24T09:51:43.919Z,5.17
2023-05-24T09:54:11.948Z,4.80
2023-05-24T09:56:41.861Z,4.77
2023-05-24T09:59:10.332Z,4.83
2023-05-24T10:01:39.836Z,5.27
2023-05-24T10:04:10.388Z,5.87
2023-05-24T10:06:38.664Z,4.50
2023-05-24T10:09:07.893Z,6.13
2023-05-24T10:11:38.256Z,4.63
2023-05-24T10:14:06.982Z,4.83
2023-05-24T10:16:34.938Z,4.33
2023-05-24T10:19:04.699Z,4.57
2023-05-24T10:21:33.256Z,5.17
2023-05-24T10:24:05.812Z,4.20
2023-05-24T10:26:39.716Z,4.87
2023-05-24T10:29:09.721Z,5.73
2023-05-24T10:31:42.700Z,4.50
2023-05-24T10:34:12.929Z,4.40
2023-05-24T10:36:44.329Z,6.60
2023-05-24T10:39:13.133Z,4.60
2023-05-24T10:41:42.415Z,4.37
2023-05-24T10:44:16.352Z,6.17
2023-05-24T10:47:15.847Z,5.50
2023-05-24T10:49:58.297Z,5.10
2023-05-24T10:52:35.689Z,5.30
2023-05-24T10:55:09.907Z,5.10
2023-05-24T10:57:39.012Z,5.80
2023-05-24T11:03:08.808Z,5.83
2023-05-24T11:05:51.881Z,4.70
2023-05-24T11:08:30.301Z,4.73
2023-05-24T11:11:22.486Z,4.60
2023-05-24T11:13:57.126Z,3.93
2023-05-24T11:16:34.479Z,5.40
2023-05-24T11:19:13.127Z,5.00
2023-05-24T11:21:45.588Z,5.77
2023-05-24T11:24:14.628Z,4.90
2023-05-24T11:26:45.082Z,5.20
2023-05-24T11:29:17.875Z,4.90
2023-05-24T11:31:49.740Z,4.57
2023-05-24T11:34:18.777Z,4.60
2023-05-24T11:36:52.371Z,5.23
2023-05-24T11:39:20.906Z,4.53
2023-05-24T11:41:49.145Z,4.77
2023-05-24T11:44:21.827Z,5.00
2023-05-24T11:46:49.810Z,5.40
2023-05-24T11:49:18.379Z,4.67
2023-05-24T11:51:47.925Z,5.40
2023-05-24T11:54:16.309Z,5.90
2023-05-24T11:56:48.960Z,5.10
2023-05-24T11:59:19.845Z,5.30
2023-05-24T12:01:53.790Z,5.83
2023-05-24T12:04:21.625Z,5.47
2023-05-24T12:06:53.056Z,5.83
2023-05-24T12:09:21.206Z,5.93
2023-05-24T12:11:53.423Z,5.60
2023-05-24T12:14:27.683Z,5.47
2023-05-24T12:16:59.087Z,5.17
2023-05-24T12:19:33.974Z,6.50
2023-05-24T12:22:06.280Z,5.70
2023-05-24T12:24:35.274Z,5.67
2023-05-24T12:27:08.840Z,5.87
2023-05-24T12:29:37.888Z,5.80
2023-05-24T12:32:15.169Z,5.60
2023-05-24T12:34:44.119Z,5.07
2023-05-24T12:37:19.371Z,5.50
2023-05-24T12:39:47.260Z,5.50
2023-05-24T12:42:22.010Z,6.20
2023-05-24T12:44:54.335Z,5.73
2023-05-24T12:47:22.704Z,4.73
2023-05-24T12:49:52.249Z,5.10
2023-05-24T12:52:24.689Z,4.53
2023-05-24T12:54:56.273Z,4.50
2023-05-24T12:57:24.556Z,4.80
2023-05-24T12:59:57.764Z,5.77
2023-05-24T13:02:27.248Z,5.07
2023-05-24T13:04:56.844Z,5.20
2023-05-24T13:07:26.049Z,4.17
2023-05-24T13:09:55.406Z,4.87
2023-05-24T13:12:23.326Z,5.00
2023-05-24T13:14:52.876Z,4.77
2023-05-24T13:17:21.327Z,4.90
2023-05-24T13:19:50.350Z,5.93
2023-05-24T13:22:21.317Z,5.37
2023-05-24T13:24:55.726Z,5.13
2023-05-24T13:27:23.546Z,4.23
2023-05-24T13:30:00.689Z,3.60
2023-05-24T13:32:29.431Z,3.50
2023-05-24T13:35:00.374Z,4.20
2023-05-24T13:37:31.030Z,5.50
2023-05-24T13:40:04.316Z,4.77
2023-05-24T13:42:32.929Z,3.57
2023-05-24T13:45:01.464Z,4.23
2023-05-24T13:47:39.189Z,5.23
2023-05-24T13:50:11.635Z,4.33
2023-05-24T13:52:45.469Z,5.37
2023-05-24T13:55:15.087Z,4.77
2023-05-24T13:57:51.851Z,3.70
2023-05-24T14:00:21.279Z,4.90
2023-05-24T14:02:49.836Z,4.20
2023-05-24T14:05:27.425Z,4.43
2023-05-24T14:07:57.518Z,3.70
2023-05-24T14:10:27.543Z,3.90
2023-05-24T14:13:12.024Z,3.70
2023-05-24T14:15:49.724Z,4.00
2023-05-24T14:18:17.811Z,3.30
2023-05-24T14:20:45.606Z,3.80
2023-05-24T14:23:13.494Z,4.60
2023-05-24T14:25:44.323Z,3.90
2023-05-24T14:28:15.061Z,4.53
2023-05-24T14:30:48.385Z,4.67
2023-05-24T14:33:16.420Z,4.10
2023-05-24T14:35:46.704Z,4.97
2023-05-24T14:38:16.884Z,4.10
2023-05-24T14:40:47.838Z,5.07
2023-05-24T14:43:17.782Z,3.90
2023-05-24T14:45:48.900Z,4.30
2023-05-24T14:48:19.168Z,3.50
2023-05-24T14:50:50.994Z,4.07
2023-05-24T14:53:20.509Z,4.90
2023-05-24T14:55:51.330Z,3.90
2023-05-24T14:58:21.433Z,4.83
2023-05-24T15:00:53.753Z,4.30
2023-05-24T15:03:24.879Z,3.97
2023-05-24T15:05:56.816Z,3.97
2023-05-24T15:08:24.582Z,4.50
2023-05-24T15:10:53.839Z,3.80
2023-05-24T15:13:25.783Z,4.00
2023-05-24T15:15:56.621Z,4.20
2023-05-24T15:18:28.045Z,4.37
2023-05-24T15:20:56.326Z,3.53
2023-05-24T15:23:27.730Z,3.90
2023-05-24T15:26:00.327Z,4.33
2023-05-24T15:28:33.774Z,4.00
2023-05-24T15:31:02.069Z,3.47
2023-05-24T15:33:35.460Z,3.93
2023-05-24T15:36:05.964Z,3.70
2023-05-24T15:38:35.141Z,3.50
2023-05-24T15:41:04.664Z,4.20
2023-05-24T15:43:32.653Z,4.17
2023-05-24T15:46:02.772Z,3.67
2023-05-24T15:48:30.656Z,3.67
2023-05-24T15:51:50.923Z,4.33
2023-05-24T15:53:48.949Z,4.20
2023-05-24T15:56:23.869Z,4.10
2023-05-24T15:58:53.580Z,3.00
2023-05-24T16:01:21.684Z,3.90
2023-05-24T16:03:52.911Z,3.70
2023-05-24T16:06:20.894Z,3.43
2023-05-24T16:08:52.150Z,3.60
2023-05-24T16:11:23.232Z,3.67
2023-05-24T16:13:56.047Z,3.90
2023-05-24T16:16:26.326Z,2.87
2023-05-24T16:19:00.155Z,3.87
2023-05-24T16:21:31.174Z,3.17
2023-05-24T16:24:03.384Z,4.13
2023-05-24T16:26:33.255Z,3.93
2023-05-24T16:29:03.223Z,2.70
2023-05-24T16:31:31.911Z,3.23
2023-05-24T16:34:00.992Z,3.27
2023-05-24T16:36:28.785Z,3.53
2023-05-24T16:38:58.389Z,2.93
2023-05-24T16:41:27.341Z,3.37
2023-05-24T16:43:58.149Z,3.23
2023-05-24T16:46:25.928Z,2.80
2023-05-24T16:48:58.941Z,2.63
2023-05-24T16:51:26.997Z,3.60
2023-05-24T16:54:05.299Z,3.20
2023-05-24T16:56:40.290Z,2.83
2023-05-24T16:59:10.130Z,2.93
2023-05-24T17:01:42.835Z,3.57
2023-05-24T17:04:10.927Z,2.93
2023-05-24T17:06:38.969Z,2.37
2023-05-24T17:09:07.150Z,3.67
2023-05-24T17:11:35.095Z,2.50
2023-05-24T17:14:04.218Z,2.80
2023-05-24T17:16:33.668Z,3.00
2023-05-24T17:19:04.737Z,2.27
2023-05-24T17:21:37.481Z,2.67
2023-05-24T17:24:08.012Z,3.20
2023-05-24T17:26:36.423Z,2.10
2023-05-24T17:29:06.865Z,2.63
2023-05-24T17:31:36.218Z,2.73
2023-05-24T17:34:04.557Z,2.67
2023-05-24T17:36:36.474Z,3.17
2023-05-24T17:39:05.079Z,2.43
2023-05-24T17:41:40.400Z,2.33
2023-05-24T17:44:08.258Z,3.47
2023-05-24T17:46:41.251Z,2.70
2023-05-24T17:49:14.148Z,2.37
2023-05-24T17:51:46.339Z,2.77
2023-05-24T17:54:14.212Z,2.40
2023-05-24T17:56:44.631Z,2.57
2023-05-24T17:59:18.042Z,3.10
2023-05-24T18:01:50.905Z,2.50
2023-05-24T18:04:20.239Z,2.00
2023-05-24T18:06:54.856Z,1.90
2023-05-24T18:09:23.341Z,2.53
2023-05-24T18:11:51.680Z,1.77
2023-05-24T18:14:25.031Z,2.00
2023-05-24T18:16:56.562Z,2.03
2023-05-24T18:19:27.075Z,2.10
2023-05-24T18:21:58.175Z,1.83
2023-05-24T18:24:31.719Z,1.60
2023-05-24T18:26:59.802Z,1.80
2023-05-24T18:29:36.150Z,2.20
2023-05-24T18:32:06.585Z,2.10
2023-05-24T18:34:37.194Z,1.73
2023-05-24T18:37:08.263Z,2.43
2023-05-24T18:39:36.559Z,2.77
2023-05-24T18:42:05.317Z,2.13
2023-05-24T18:44:37.163Z,2.10
2023-05-24T18:47:07.776Z,1.73
2023-05-24T18:49:38.830Z,1.87
2023-05-24T18:52:07.378Z,1.87
2023-05-24T18:54:35.457Z,2.37
2023-05-24T18:57:09.014Z,1.93
2023-05-24T18:59:39.760Z,2.40
2023-05-24T19:02:14.764Z,2.10
2023-05-24T19:04:42.843Z,1.50
2023-05-24T19:07:15.972Z,2.00
2023-05-24T19:09:44.791Z,2.20
2023-05-24T19:12:18.347Z,2.00
2023-05-24T19:14:46.826Z,1.70
2023-05-24T19:17:23.525Z,2.33
2023-05-24T19:19:57.238Z,1.97
2023-05-24T19:22:27.902Z,1.50
2023-05-24T19:24:56.456Z,1.73
2023-05-24T19:27:28.467Z,2.17
2023-05-24T19:29:59.598Z,1.53
2023-05-24T19:32:30.354Z,1.83
2023-05-24T19:35:04.062Z,1.83
2023-05-24T19:37:32.078Z,1.63
2023-05-24T19:40:00.366Z,1.43
2023-05-24T19:42:30.654Z,2.00
2023-05-24T19:44:59.913Z,1.47
2023-05-24T19:47:29.736Z,1.60
2023-05-24T19:50:01.988Z,1.53
2023-05-24T19:52:30.546Z,2.00
2023-05-24T19:54:58.931Z,1.60
2023-05-24T19:57:30.599Z,2.07
2023-05-24T19:59:58.662Z,2.20
2023-05-24T20:02:29.934Z,1.80
2023-05-24T20:05:00.144Z,1.43
2023-05-24T20:07:31.604Z,2.10
2023-05-24T20:10:06.046Z,1.80
2023-05-24T20:12:36.264Z,1.70
2023-05-24T20:15:04.375Z,1.70
2023-05-24T20:17:33.376Z,1.87
2023-05-24T20:20:09.236Z,2.07
2023-05-24T20:22:40.338Z,2.40
2023-05-24T20:25:12.030Z,1.50
2023-05-24T20:27:41.085Z,2.00
2023-05-24T20:30:12.479Z,2.37
2023-05-24T20:32:40.474Z,1.87
2023-05-24T20:35:14.308Z,2.30
2023-05-24T20:37:45.229Z,2.50
2023-05-24T20:40:23.290Z,2.90
2023-05-24T20:42:58.788Z,2.40
2023-05-24T20:45:27.823Z,2.53
2023-05-24T20:47:56.349Z,3.13
2023-05-24T20:50:25.688Z,3.00
2023-05-24T20:52:53.482Z,2.60
2023-05-24T20:55:21.398Z,2.63
2023-05-24T20:57:54.798Z,4.00
2023-05-24T21:00:22.640Z,2.70
2023-05-24T21:02:50.530Z,3.40
2023-05-24T21:05:18.505Z,2.30
2023-05-24T21:07:47.850Z,3.80
2023-05-24T21:10:19.584Z,3.20
2023-05-24T21:12:48.764Z,2.90
2023-05-24T21:15:16.872Z,3.10
2023-05-24T21:17:47.144Z,2.70
2023-05-24T21:20:15.149Z,3.27
2023-05-24T21:22:46.192Z,2.90
2023-05-24T21:25:17.789Z,3.90
2023-05-24T21:27:45.810Z,3.80
2023-05-24T21:30:19.385Z,3.43
2023-05-24T21:32:50.212Z,3.10
2023-05-24T21:35:23.421Z,3.10
2023-05-24T21:37:54.049Z,3.30
2023-05-24T21:40:24.926Z,3.80
2023-05-24T21:42:54.695Z,3.17
2023-05-24T21:45:25.836Z,2.60
2023-05-24T21:47:56.538Z,3.20
2023-05-24T21:50:24.893Z,2.77
2023-05-24T21:52:53.590Z,2.57
2023-05-24T21:55:22.992Z,2.73
2023-05-24T21:57:52.954Z,3.33
2023-05-24T22:00:23.215Z,3.83
2023-05-24T22:02:51.584Z,3.47
2023-05-24T22:05:19.866Z,3.27
2023-05-24T22:07:47.924Z,3.63
2023-05-24T22:10:16.167Z,3.07
2023-05-24T22:12:44.253Z,3.30
2023-05-24T22:15:14.475Z,2.40
2023-05-24T22:17:48.326Z,3.10
2023-05-24T22:20:17.046Z,3.00
2023-05-24T22:22:48.609Z,3.33
2023-05-24T22:25:17.640Z,3.00
2023-05-24T22:27:45.436Z,2.90
2023-05-24T22:30:15.684Z,3.57
2023-05-24T22:32:43.643Z,3.60
2023-05-24T22:35:11.617Z,3.00
2023-05-24T22:37:39.672Z,2.90
2023-05-24T22:40:08.953Z,3.50
2023-05-24T22:42:38.766Z,3.20
2023-05-24T22:45:10.830Z,3.53
2023-05-24T22:47:43.038Z,3.93
2023-05-24T22:50:11.653Z,3.20
2023-05-24T22:52:42.407Z,3.50
2023-05-24T22:55:10.939Z,2.93
2023-05-24T22:57:39.044Z,3.40
2023-05-24T23:00:08.385Z,2.73
2023-05-24T23:02:36.346Z,3.57
2023-05-24T23:05:06.243Z,3.67
2023-05-24T23:07:43.192Z,2.97
2023-05-24T23:10:11.496Z,2.83
2023-05-24T23:12:42.386Z,3.20
2023-05-24T23:15:16.763Z,3.27
2023-05-24T23:17:46.448Z,3.43
2023-05-24T23:20:15.741Z,3.50
2023-05-24T23:22:46.777Z,3.23
2023-05-24T23:25:16.995Z,3.40
2023-05-24T23:27:47.294Z,2.70
2023-05-24T23:30:15.234Z,4.00
2023-05-24T23:32:43.403Z,3.93
2023-05-24T23:35:11.229Z,3.20
2023-05-24T23:37:40.448Z,3.77
2023-05-24T23:40:09.851Z,3.57
2023-05-24T23:42:40.376Z,3.50
2023-05-24T23:45:08.925Z,3.57
2023-05-24T23:47:37.814Z,2.83
2023-05-24T23:50:06.638Z,2.90
2023-05-24T23:52:35.311Z,3.20
2023-05-24T23:55:04.935Z,3.20
2023-05-24T23:57:32.663Z,2.40
